createdAt,value
2018-11-23T00:00:29.899Z,24.23
2018-11-23T00:02:59.305Z,22.60
2018-11-23T00:05:28.193Z,26.60
2018-11-23T00:07:58.014Z,27.23
2018-11-23T00:10:28.311Z,28.30
2018-11-23T00:12:57.216Z,26.63
2018-11-23T00:15:27.049Z,25.57
2018-11-23T00:17:55.929Z,27.93
2018-11-23T00:20:26.265Z,25.97
2018-11-23T00:22:55.151Z,26.30
2018-11-23T00:25:25.090Z,26.50
2018-11-23T00:27:54.547Z,27.80
2018-11-23T00:30:26.537Z,27.27
2018-11-23T00:32:55.549Z,26.70
2018-11-23T00:35:26.875Z,26.57
2018-11-23T00:37:56.049Z,27.83
2018-11-23T00:40:26.298Z,27.80
2018-11-23T00:42:55.498Z,29.07
2018-11-23T00:45:24.401Z,29.87
2018-11-23T00:47:54.182Z,29.23
2018-11-23T00:50:24.004Z,29.57
2018-11-23T00:52:53.726Z,30.03
2018-11-23T00:55:23.369Z,30.70
2018-11-23T00:57:52.282Z,30.13
2018-11-23T01:00:24.298Z,31.07
2018-11-23T01:02:53.576Z,29.43
2018-11-23T01:05:22.562Z,29.17
2018-11-23T01:07:51.534Z,31.20
2018-11-23T01:10:21.479Z,30.47
2018-11-23T01:12:51.486Z,30.70
2018-11-23T01:15:20.366Z,29.40
2018-11-23T01:17:49.273Z,32.00
2018-11-23T01:20:19.508Z,31.60
2018-11-23T01:22:48.940Z,31.13
2018-11-23T01:25:19.131Z,31.07
2018-11-23T01:27:49.274Z,29.97
2018-11-23T01:30:29.322Z,31.67
2018-11-23T01:32:58.271Z,30.00
2018-11-23T01:35:27.158Z,31.00
2018-11-23T01:37:57.001Z,32.30
2018-11-23T01:40:28.376Z,32.70
2018-11-23T01:42:57.633Z,32.87
2018-11-23T01:45:26.589Z,33.97
2018-11-23T01:47:55.478Z,33.47
2018-11-23T01:50:25.797Z,32.77
2018-11-23T01:52:54.677Z,34.73
2018-11-23T01:55:24.361Z,35.00
2018-11-23T01:57:53.482Z,34.60
2018-11-23T02:00:23.686Z,36.03
2018-11-23T02:02:53.413Z,37.80
2018-11-23T02:05:22.397Z,39.47
2018-11-23T02:07:51.449Z,38.60
2018-11-23T02:10:20.590Z,41.77
2018-11-23T02:12:49.473Z,40.93
2018-11-23T02:15:20.640Z,40.57
2018-11-23T02:17:50.125Z,40.83
2018-11-23T02:20:19.757Z,41.03
2018-11-23T02:22:49.074Z,42.33
2018-11-23T02:25:17.994Z,42.73
2018-11-23T02:27:46.889Z,44.70
2018-11-23T02:30:20.955Z,44.13
2018-11-23T02:32:49.871Z,43.63
2018-11-23T02:35:19.070Z,44.93
2018-11-23T02:37:48.321Z,44.10
2018-11-23T02:40:18.362Z,45.97
2018-11-23T02:42:48.277Z,45.47
2018-11-23T02:45:20.545Z,46.60
2018-11-23T02:47:49.714Z,46.77
2018-11-23T02:50:18.633Z,47.57
2018-11-23T02:52:48.059Z,46.70
2018-11-23T02:55:18.040Z,46.70
2018-11-23T02:57:46.921Z,48.90
2018-11-23T03:00:17.916Z,48.23
2018-11-23T03:02:46.817Z,49.00
2018-11-23T03:05:17.420Z,48.53
2018-11-23T03:07:47.245Z,50.27
2018-11-23T03:10:16.739Z,51.07
2018-11-23T03:12:46.352Z,49.87
2018-11-23T03:15:17.949Z,51.23
2018-11-23T03:17:47.385Z,51.10
2018-11-23T03:20:18.557Z,51.67
2018-11-23T03:22:48.381Z,50.77
2018-11-23T03:25:17.273Z,52.07
2018-11-23T03:27:46.208Z,51.40
2018-11-23T03:30:17.069Z,50.93
2018-11-23T03:32:47.193Z,51.83
2018-11-23T03:35:16.393Z,51.23
2018-11-23T03:37:45.590Z,52.17
2018-11-23T03:40:14.509Z,52.17
2018-11-23T03:42:43.413Z,49.53
2018-11-23T03:45:13.081Z,52.73
2018-11-23T03:47:42.753Z,50.17
2018-11-23T03:50:12.906Z,50.13
2018-11-23T03:52:42.338Z,51.73
2018-11-23T03:55:11.242Z,53.20
2018-11-23T03:57:40.133Z,51.97
2018-11-23T04:00:18.601Z,54.73
2018-11-23T04:02:47.716Z,52.57
2018-11-23T04:05:17.016Z,53.00
2018-11-23T04:07:46.152Z,55.40
2018-11-23T04:10:16.871Z,54.00
2018-11-23T04:12:46.165Z,54.90
2018-11-23T04:15:15.468Z,52.77
2018-11-23T04:17:44.359Z,53.87
2018-11-23T04:20:14.601Z,53.53
2018-11-23T04:22:43.760Z,54.97
2018-11-23T04:25:13.176Z,52.17
2018-11-23T04:27:42.605Z,54.07
2018-11-23T04:30:13.570Z,55.00
2018-11-23T04:32:42.834Z,54.33
2018-11-23T04:35:13.261Z,55.83
2018-11-23T04:37:42.769Z,54.83
2018-11-23T04:40:12.586Z,58.33
2018-11-23T04:42:41.775Z,56.53
2018-11-23T04:45:11.110Z,54.67
2018-11-23T04:47:40.997Z,54.87
2018-11-23T04:50:12.760Z,56.77
2018-11-23T04:52:41.758Z,55.63
2018-11-23T04:55:10.947Z,58.00
2018-11-23T04:57:39.840Z,55.40
2018-11-23T05:00:10.586Z,56.67
2018-11-23T05:02:39.480Z,57.30
2018-11-23T05:05:09.401Z,57.87
2018-11-23T05:07:38.397Z,56.50
2018-11-23T05:10:09.287Z,55.77
2018-11-23T05:12:38.207Z,56.73
2018-11-23T05:15:07.857Z,57.80
2018-11-23T05:17:36.896Z,58.17
2018-11-23T05:20:06.437Z,57.80
2018-11-23T05:22:35.491Z,56.87
2018-11-23T05:25:04.425Z,56.03
2018-11-23T05:27:33.435Z,56.37
2018-11-23T05:30:02.391Z,55.83
2018-11-23T05:32:31.277Z,59.30
2018-11-23T05:35:00.298Z,58.40
2018-11-23T05:37:29.202Z,57.00
2018-11-23T05:39:58.957Z,57.17
2018-11-23T05:42:27.913Z,58.07
2018-11-23T05:44:56.805Z,58.30
2018-11-23T05:47:25.689Z,58.43
2018-11-23T05:49:54.708Z,56.27
2018-11-23T05:52:23.628Z,56.27
2018-11-23T05:54:52.517Z,56.63
2018-11-23T05:57:21.510Z,55.13
2018-11-23T05:59:50.632Z,55.53
2018-11-23T06:02:19.526Z,55.47
2018-11-23T06:04:48.458Z,54.90
2018-11-23T06:07:18.306Z,56.77
2018-11-23T06:09:47.256Z,56.80
2018-11-23T06:12:17.145Z,54.90
2018-11-23T06:14:46.955Z,54.77
2018-11-23T06:17:15.865Z,53.97
2018-11-23T06:19:44.802Z,54.70
2018-11-23T06:22:13.700Z,56.37
2018-11-23T06:24:42.585Z,58.00
2018-11-23T06:27:11.816Z,55.37
2018-11-23T06:29:40.711Z,56.93
2018-11-23T06:32:21.142Z,55.67
2018-11-23T06:34:50.073Z,54.47
2018-11-23T06:37:18.958Z,55.70
2018-11-23T06:39:47.958Z,55.07
2018-11-23T06:42:16.845Z,57.03
2018-11-23T06:44:45.736Z,57.20
2018-11-23T06:47:14.661Z,56.63
2018-11-23T06:49:44.625Z,56.40
2018-11-23T06:52:13.845Z,53.73
2018-11-23T06:54:42.753Z,54.67
2018-11-23T06:57:11.639Z,53.47
2018-11-23T06:59:40.649Z,54.53
2018-11-23T07:02:09.538Z,50.30
2018-11-23T07:04:39.344Z,56.07
2018-11-23T07:07:08.349Z,55.57
2018-11-23T07:09:38.126Z,53.03
2018-11-23T07:20:58.276Z,51.67
2018-11-23T07:23:27.228Z,55.00
2018-11-23T07:25:56.173Z,54.00
2018-11-23T07:28:25.239Z,54.30
2018-11-23T07:30:54.196Z,56.53
2018-11-23T07:33:23.140Z,56.03
2018-11-23T07:35:52.216Z,57.13
2018-11-23T07:38:21.164Z,54.20
2018-11-23T07:41:01.588Z,54.80
2018-11-23T07:43:30.524Z,49.93
2018-11-23T07:45:59.468Z,53.40
2018-11-23T07:48:28.532Z,52.63
2018-11-23T07:50:57.495Z,54.00
2018-11-23T07:53:26.446Z,52.83
2018-11-23T07:55:55.518Z,53.60
2018-11-23T07:58:24.473Z,55.33
2018-11-23T08:00:53.428Z,53.80
2018-11-23T08:03:22.449Z,53.63
2018-11-23T08:05:51.403Z,52.43
2018-11-23T08:08:20.363Z,51.17
2018-11-23T08:10:48.822Z,53.00
2018-11-23T08:13:17.772Z,53.67
2018-11-23T08:15:46.720Z,50.43
2018-11-23T08:18:15.732Z,51.70
2018-11-23T08:20:44.681Z,52.30
2018-11-23T08:23:13.627Z,52.77
2018-11-23T08:25:42.616Z,53.30
2018-11-23T08:28:11.565Z,51.37
2018-11-23T08:30:40.516Z,46.80
2018-11-23T08:33:09.752Z,52.97
2018-11-23T08:35:38.708Z,50.97
2018-11-23T08:38:07.755Z,50.73
2018-11-23T08:40:36.748Z,51.80
2018-11-23T08:43:05.904Z,50.70
2018-11-23T08:45:34.853Z,53.93
2018-11-23T08:48:03.921Z,51.43
2018-11-23T08:50:32.872Z,51.87
2018-11-23T08:53:01.840Z,51.37
2018-11-23T08:55:30.899Z,51.20
2018-11-23T08:57:59.840Z,51.30
2018-11-23T09:00:29.213Z,49.73
2018-11-23T09:02:59.713Z,52.17
2018-11-23T09:05:28.660Z,49.00
2018-11-23T09:07:58.141Z,52.10
2018-11-23T09:10:28.604Z,51.90
2018-11-23T09:12:59.190Z,51.27
2018-11-23T09:15:28.156Z,51.07
2018-11-23T09:17:57.143Z,50.37
2018-11-23T09:20:26.104Z,50.97
2018-11-23T09:22:55.120Z,52.00
2018-11-23T09:25:24.594Z,52.97
2018-11-23T09:27:53.592Z,49.90
2018-11-23T09:30:25.731Z,51.83
2018-11-23T09:32:55.358Z,51.10
2018-11-23T09:35:25.871Z,53.83
2018-11-23T09:37:54.873Z,53.50
2018-11-23T09:40:25.443Z,51.67
2018-11-23T09:42:55.759Z,50.70
2018-11-23T09:45:27.334Z,51.90
2018-11-23T09:47:58.893Z,51.97
2018-11-23T09:50:28.620Z,54.63
2018-11-23T09:52:58.988Z,53.73
2018-11-23T09:55:28.923Z,52.93
2018-11-23T09:57:57.904Z,55.67
2018-11-23T10:00:28.729Z,51.97
2018-11-23T10:02:58.466Z,53.27
2018-11-23T10:05:28.252Z,52.20
2018-11-23T10:07:58.711Z,52.03
2018-11-23T10:10:28.415Z,50.87
2018-11-23T10:12:58.257Z,51.47
2018-11-23T10:15:28.565Z,49.93
2018-11-23T10:17:57.548Z,51.93
2018-11-23T10:20:27.902Z,53.53
2018-11-23T10:22:57.453Z,51.33
2018-11-23T10:25:27.810Z,49.47
2018-11-23T10:27:56.943Z,51.37
2018-11-23T10:30:28.956Z,49.23
2018-11-23T10:32:59.327Z,49.40
2018-11-23T10:35:29.389Z,49.77
2018-11-23T10:37:59.746Z,49.37
2018-11-23T10:40:32.584Z,48.87
2018-11-23T10:43:01.532Z,50.07
2018-11-23T10:45:31.848Z,50.90
2018-11-23T10:48:02.373Z,48.27
2018-11-23T10:50:33.985Z,50.03
2018-11-23T10:53:02.994Z,50.00
2018-11-23T10:55:33.777Z,51.90
2018-11-23T10:58:03.637Z,52.20
2018-11-23T11:00:38.098Z,50.73
2018-11-23T11:03:12.457Z,48.87
2018-11-23T11:05:46.871Z,49.70
2018-11-23T11:08:15.933Z,49.83
2018-11-23T11:10:44.933Z,47.67
2018-11-23T11:13:13.898Z,49.00
2018-11-23T11:15:44.184Z,47.77
2018-11-23T11:18:13.156Z,49.93
2018-11-23T11:20:42.460Z,47.93
2018-11-23T11:23:11.474Z,45.67
2018-11-23T11:25:40.793Z,47.70
2018-11-23T11:28:09.761Z,46.00
2018-11-23T11:30:39.030Z,46.10
2018-11-23T11:33:08.008Z,45.33
2018-11-23T11:35:36.977Z,46.70
2018-11-23T11:38:06.007Z,46.70
2018-11-23T11:40:35.357Z,46.57
2018-11-23T11:43:05.250Z,46.73
2018-11-23T11:45:34.260Z,44.37
2018-11-23T11:48:04.060Z,42.73
2018-11-23T11:50:33.064Z,44.70
2018-11-23T11:53:02.050Z,46.27
2018-11-23T11:55:31.034Z,44.73
2018-11-23T11:57:59.994Z,44.63
2018-11-23T12:00:29.248Z,43.77
2018-11-23T12:02:58.524Z,42.43
2018-11-23T12:05:27.484Z,43.30
2018-11-23T12:07:57.078Z,43.63
2018-11-23T12:10:26.710Z,41.77
2018-11-23T12:12:56.577Z,43.43
2018-11-23T12:15:25.565Z,42.70
2018-11-23T12:17:54.535Z,41.97
2018-11-23T12:20:24.749Z,42.20
2018-11-23T12:22:53.773Z,40.27
2018-11-23T12:25:23.229Z,41.50
2018-11-23T12:27:52.687Z,42.87
2018-11-23T12:30:22.199Z,40.97
2018-11-23T12:32:52.488Z,42.43
2018-11-23T12:35:22.912Z,41.67
2018-11-23T12:37:51.937Z,40.03
2018-11-23T12:40:21.423Z,42.37
2018-11-23T12:42:51.662Z,42.37
2018-11-23T12:45:22.677Z,41.63
2018-11-23T12:47:51.685Z,41.67
2018-11-23T12:50:21.996Z,41.67
2018-11-23T12:52:51.835Z,40.93
2018-11-23T12:55:21.213Z,41.33
2018-11-23T12:57:50.540Z,42.77
2018-11-23T13:00:20.864Z,43.60
2018-11-23T13:02:57.608Z,42.83
2018-11-23T13:05:27.805Z,43.77
2018-11-23T13:07:57.977Z,42.33
2018-11-23T13:10:27.544Z,43.37
2018-11-23T13:12:57.181Z,43.13
2018-11-23T13:15:26.185Z,42.43
2018-11-23T13:17:56.070Z,43.40
2018-11-23T13:20:26.042Z,43.17
2018-11-23T13:22:55.016Z,43.47
2018-11-23T13:25:25.639Z,43.17
2018-11-23T13:27:55.960Z,43.43
2018-11-23T13:30:27.008Z,45.73
2018-11-23T13:32:56.357Z,47.33
2018-11-23T13:35:25.317Z,45.93
2018-11-23T13:37:54.364Z,45.43
2018-11-23T13:40:24.593Z,45.47
2018-11-23T13:42:54.436Z,46.07
2018-11-23T13:45:24.649Z,45.63
2018-11-23T13:47:53.615Z,47.47
2018-11-23T13:50:24.333Z,49.13
2018-11-23T13:52:54.997Z,48.33
2018-11-23T13:55:24.021Z,50.37
2018-11-23T13:57:53.685Z,49.10
2018-11-23T14:00:24.046Z,49.20
2018-11-23T14:02:53.988Z,48.37
2018-11-23T14:05:25.417Z,49.07
2018-11-23T14:07:55.813Z,48.40
2018-11-23T14:10:25.732Z,46.77
2018-11-23T14:12:54.795Z,50.97
2018-11-23T14:15:24.945Z,47.50
2018-11-23T14:17:54.986Z,50.73
2018-11-23T14:20:24.600Z,50.60
2018-11-23T14:22:53.770Z,50.30
2018-11-23T14:25:23.997Z,49.73
2018-11-23T14:27:54.408Z,51.53
2018-11-23T14:30:24.758Z,51.57
2018-11-23T14:32:55.133Z,51.53
2018-11-23T14:35:25.704Z,51.27
2018-11-23T14:37:55.446Z,52.33
2018-11-23T14:40:24.481Z,51.73
2018-11-23T14:42:53.812Z,50.70
2018-11-23T14:45:32.741Z,51.80
2018-11-23T14:48:04.753Z,50.30
2018-11-23T14:50:34.948Z,50.93
2018-11-23T14:53:03.946Z,48.83
2018-11-23T14:55:33.268Z,50.20
2018-11-23T14:58:02.300Z,49.53
2018-11-23T15:00:36.332Z,50.60
2018-11-23T15:03:06.500Z,50.70
2018-11-23T15:05:35.865Z,51.07
2018-11-23T15:08:04.961Z,51.20
2018-11-23T15:10:34.901Z,51.23
2018-11-23T15:13:04.988Z,51.20
2018-11-23T15:15:35.318Z,50.27
2018-11-23T15:18:04.321Z,49.83
2018-11-23T15:20:35.873Z,49.33
2018-11-23T15:23:10.153Z,51.07
2018-11-23T15:25:39.177Z,52.33
2018-11-23T15:28:09.061Z,52.73
2018-11-23T15:30:38.836Z,51.80
2018-11-23T15:33:08.514Z,52.33
2018-11-23T15:35:38.237Z,51.50
2018-11-23T15:38:10.291Z,50.60
2018-11-23T15:40:37.873Z,50.70
2018-11-23T15:43:08.529Z,51.93
2018-11-23T15:45:37.761Z,52.03
2018-11-23T15:48:08.193Z,51.33
2018-11-23T15:50:40.464Z,51.90
2018-11-23T15:53:10.691Z,52.50
2018-11-23T15:55:40.324Z,52.87
2018-11-23T15:58:12.142Z,53.10
2018-11-23T16:00:42.858Z,52.60
2018-11-23T16:03:12.721Z,51.50
2018-11-23T16:05:42.169Z,55.13
2018-11-23T16:08:12.872Z,51.83
2018-11-23T16:10:41.826Z,53.67
2018-11-23T16:13:11.777Z,53.07
2018-11-23T16:15:40.807Z,54.07
2018-11-23T16:18:10.069Z,54.07
2018-11-23T16:20:41.039Z,54.80
2018-11-23T16:23:11.336Z,51.87
2018-11-23T16:25:40.860Z,53.33
2018-11-23T16:28:10.576Z,55.23
2018-11-23T16:30:41.017Z,52.80
2018-11-23T16:33:11.532Z,54.77
2018-11-23T16:35:41.035Z,55.73
2018-11-23T16:38:11.820Z,55.17
2018-11-23T16:40:42.140Z,55.23
2018-11-23T16:43:12.902Z,54.70
2018-11-23T16:45:42.413Z,54.50
2018-11-23T16:48:12.362Z,56.10
2018-11-23T16:50:41.409Z,53.20
2018-11-23T16:53:11.345Z,57.60
2018-11-23T16:55:40.305Z,55.47
2018-11-23T16:58:11.085Z,55.20
2018-11-23T17:00:41.409Z,52.63
2018-11-23T17:03:12.269Z,53.23
2018-11-23T17:05:44.873Z,53.47
2018-11-23T17:08:13.947Z,55.23
2018-11-23T17:10:42.908Z,54.93
2018-11-23T17:13:11.869Z,54.70
2018-11-23T17:15:41.915Z,55.77
2018-11-23T17:18:10.877Z,56.13
2018-11-23T17:20:40.450Z,56.73
2018-11-23T17:23:10.463Z,55.13
2018-11-23T17:25:39.429Z,57.13
2018-11-23T17:28:09.653Z,55.90
2018-11-23T17:30:39.128Z,57.47
2018-11-23T17:33:08.107Z,56.77
2018-11-23T17:35:37.212Z,59.53
2018-11-23T17:38:06.366Z,58.17
2018-11-23T17:40:37.622Z,59.73
2018-11-23T17:43:06.751Z,59.63
2018-11-23T17:45:35.932Z,55.77
2018-11-23T17:48:05.459Z,56.97
2018-11-23T17:50:35.720Z,58.53
2018-11-23T17:53:05.125Z,57.93
2018-11-23T17:55:34.995Z,58.50
2018-11-23T17:58:05.110Z,57.33
2018-11-23T18:00:39.271Z,56.80
2018-11-23T18:03:04.233Z,56.73
2018-11-23T18:05:34.054Z,57.10
2018-11-23T18:08:03.505Z,56.40
2018-11-23T18:10:33.626Z,56.93
2018-11-23T18:13:02.936Z,56.60
2018-11-23T18:15:33.056Z,56.30
2018-11-23T18:18:03.076Z,57.50
2018-11-23T18:20:32.586Z,55.50
2018-11-23T18:23:02.298Z,55.80
2018-11-23T18:25:33.769Z,57.23
2018-11-23T18:28:02.879Z,56.30
2018-11-23T18:30:33.066Z,58.57
2018-11-23T18:33:03.428Z,56.70
2018-11-23T18:35:32.380Z,59.07
2018-11-23T18:38:01.368Z,57.67
2018-11-23T18:40:37.118Z,57.90
2018-11-23T18:42:59.626Z,56.70
2018-11-23T18:45:28.590Z,56.67
2018-11-23T18:47:57.580Z,56.57
2018-11-23T18:50:26.588Z,58.17
2018-11-23T18:52:56.388Z,58.50
2018-11-23T18:55:25.373Z,55.53
2018-11-23T18:57:54.364Z,58.17
2018-11-23T19:00:23.326Z,57.43
2018-11-23T19:02:52.341Z,58.30
2018-11-23T19:05:24.607Z,58.40
2018-11-23T19:07:53.682Z,57.93
2018-11-23T19:10:22.770Z,56.33
2018-11-23T19:12:51.968Z,57.17
2018-11-23T19:15:25.689Z,60.87
2018-11-23T19:17:50.005Z,63.23
2018-11-23T19:20:22.165Z,61.10
2018-11-23T19:22:53.487Z,60.07
2018-11-23T19:25:22.474Z,60.03
2018-11-23T19:27:51.456Z,62.67
2018-11-23T19:30:28.128Z,59.90
2018-11-23T19:32:50.531Z,61.93
2018-11-23T19:35:19.973Z,60.20
2018-11-23T19:37:49.880Z,61.80
2018-11-23T19:40:18.849Z,61.30
2018-11-23T19:42:47.847Z,61.60
2018-11-23T19:45:17.163Z,60.77
2018-11-23T19:47:46.266Z,62.53
2018-11-23T19:50:16.947Z,61.70
2018-11-23T19:52:46.073Z,60.87
2018-11-23T19:55:16.976Z,60.77
2018-11-23T19:57:45.960Z,62.30
2018-11-23T20:00:19.165Z,60.17
2018-11-23T20:02:49.076Z,58.67
2018-11-23T20:05:18.040Z,61.83
2018-11-23T20:07:48.201Z,64.47
2018-11-23T20:10:19.028Z,64.33
2018-11-23T20:12:49.267Z,58.53
2018-11-23T20:15:18.729Z,60.57
2018-11-23T20:17:47.892Z,60.17
2018-11-23T20:20:17.393Z,58.50
2018-11-23T20:22:48.173Z,61.33
2018-11-23T20:25:18.220Z,60.07
2018-11-23T20:27:48.226Z,58.23
2018-11-23T20:30:18.630Z,59.43
2018-11-23T20:32:47.669Z,57.67
2018-11-23T20:35:19.115Z,65.47
2018-11-23T20:37:48.077Z,63.70
2018-11-23T20:40:18.276Z,63.47
2018-11-23T20:42:47.385Z,60.07
2018-11-23T20:45:16.388Z,62.57
2018-11-23T20:47:45.371Z,59.73
2018-11-23T20:50:15.317Z,59.13
2018-11-23T20:52:44.600Z,59.57
2018-11-23T20:55:15.749Z,60.67
2018-11-23T20:57:44.721Z,61.03
2018-11-23T21:00:15.513Z,59.87
2018-11-23T21:02:45.260Z,61.07
2018-11-23T21:05:15.208Z,59.53
2018-11-23T21:07:44.157Z,59.43
2018-11-23T21:10:20.287Z,58.70
2018-11-23T21:12:45.516Z,58.53
2018-11-23T21:15:20.027Z,57.57
2018-11-23T21:17:48.983Z,58.27
2018-11-23T21:20:17.963Z,57.73
2018-11-23T21:22:47.489Z,57.80
2018-11-23T21:25:16.473Z,57.97
2018-11-23T21:27:45.423Z,58.10
2018-11-23T21:30:15.617Z,56.30
2018-11-23T21:32:44.572Z,56.63
2018-11-23T21:35:13.733Z,57.07
2018-11-23T21:37:42.762Z,59.57
2018-11-23T21:40:18.392Z,56.17
2018-11-23T21:42:47.472Z,55.97
2018-11-23T21:45:17.575Z,56.53
2018-11-23T21:47:46.568Z,57.87
2018-11-23T21:50:24.636Z,58.30
2018-11-23T21:52:46.456Z,56.20
2018-11-23T21:55:22.464Z,56.93
2018-11-23T21:57:52.100Z,57.30
2018-11-23T22:00:21.988Z,58.90
2018-11-23T22:02:50.966Z,57.53
2018-11-23T22:05:20.065Z,57.37
2018-11-23T22:07:49.022Z,58.47
2018-11-23T22:10:18.757Z,57.67
2018-11-23T22:12:47.853Z,59.07
2018-11-23T22:15:17.859Z,59.97
2018-11-23T22:17:47.237Z,59.33
2018-11-23T22:20:17.516Z,56.97
2018-11-23T22:22:46.472Z,56.30
2018-11-23T22:25:16.528Z,58.53
2018-11-23T22:27:45.522Z,58.13
2018-11-23T22:30:26.135Z,59.23
2018-11-23T22:32:55.089Z,55.43
2018-11-23T22:35:25.060Z,59.23
2018-11-23T22:37:54.053Z,55.63
2018-11-23T22:40:23.064Z,58.07
2018-11-23T22:42:53.189Z,58.63
2018-11-23T22:45:22.172Z,54.93
2018-11-23T22:47:51.152Z,57.20
2018-11-23T22:50:21.218Z,56.07
2018-11-23T22:52:50.261Z,54.10
2018-11-23T22:55:19.684Z,52.27
2018-11-23T22:57:48.749Z,55.80
2018-11-23T23:00:23.998Z,54.27
2018-11-23T23:02:53.031Z,52.57
2018-11-23T23:05:23.147Z,51.33
2018-11-23T23:07:52.146Z,54.27
2018-11-23T23:10:21.130Z,52.80
2018-11-23T23:12:51.011Z,54.70
2018-11-23T23:15:20.036Z,54.20
2018-11-23T23:17:49.009Z,55.20
2018-11-23T23:20:19.297Z,56.57
2018-11-23T23:22:48.292Z,56.50
2018-11-23T23:25:18.761Z,53.73
2018-11-23T23:27:47.753Z,53.80
2018-11-23T23:30:17.601Z,54.30
2018-11-23T23:32:47.468Z,58.00
2018-11-23T23:35:17.233Z,54.13
2018-11-23T23:37:46.298Z,52.90
2018-11-23T23:40:16.336Z,56.47
2018-11-23T23:42:45.660Z,55.13
2018-11-23T23:45:15.682Z,58.00
2018-11-23T23:47:44.666Z,55.30
2018-11-23T23:50:16.010Z,55.30
2018-11-23T23:52:45.072Z,56.70
2018-11-23T23:55:14.095Z,57.37
2018-11-23T23:57:45.154Z,55.60
